Time;durP1;ratioP1;P1;durP2;ratioP2;P2;SDS_P1;SDS_P2;PMS_P1;PMS_P2;Temp;Humidity;BMP_temperature;BMP_pressure;BME280_temperature;BME280_humidity;BME280_pressure;Samples;Min_cycle;Max_cycle;Signal;HPM_P1;HPM_P2
2022/12/24 00:01:47;;;;;;;29.75;19.52;;;;;;;8.13;84.63;99061.29;2003260;88;28778;-66
2022/12/24 00:04:48;;;;;;;31.45;19.90;;;;;;;8.16;84.63;99064.66;2003497;88;31520;-63
2022/12/24 00:07:50;;;;;;;29.20;20.55;;;;;;;8.19;84.62;99059.59;2003117;88;34181;-70
2022/12/24 00:10:53;;;;;;;27.30;20.62;;;;;;;8.18;84.54;99052.55;2003487;88;29347;-64
2022/12/24 00:13:55;;;;;;;28.02;20.45;;;;;;;8.19;84.55;99051.59;2003623;88;28212;-64
2022/12/24 00:16:57;;;;;;;31.65;21.68;;;;;;;8.17;84.46;99048.16;2004919;87;29471;-70
2022/12/24 00:19:59;;;;;;;33.85;22.93;;;;;;;8.17;84.50;99034.36;2026928;87;31948;-66
2022/12/24 00:23:01;;;;;;;35.95;23.25;;;;;;;8.14;84.41;99029.20;2037365;87;34258;-67
2022/12/24 00:26:03;;;;;;;32.63;23.45;;;;;;;8.13;84.46;99039.95;2026484;87;30151;-67
2022/12/24 00:29:05;;;;;;;32.58;23.60;;;;;;;8.11;84.42;99037.39;2037588;87;27732;-66
2022/12/24 00:32:09;;;;;;;31.25;22.60;;;;;;;8.09;84.50;99043.28;2008279;87;28690;-65
2022/12/24 00:35:10;;;;;;;30.40;20.48;;;;;;;8.09;84.53;99047.28;2037671;87;32236;-69
2022/12/24 00:38:12;;;;;;;27.45;19.25;;;;;;;8.08;84.49;99048.23;2026460;87;34122;-71
2022/12/24 00:41:24;;;;;;;31.93;20.10;;;;;;;8.06;84.50;99051.00;2037924;87;30468;-68
2022/12/24 00:44:26;;;;;;;31.62;21.17;;;;;;;8.05;84.52;99052.41;2026539;87;28306;-71
2022/12/24 00:47:27;;;;;;;31.35;21.07;;;;;;;8.05;84.62;99058.63;2036683;87;29925;-72
2022/12/24 00:50:30;;;;;;;28.42;19.30;;;;;;;8.06;84.66;99055.47;2026274;87;31462;-70
2022/12/24 00:53:31;;;;;;;26.52;18.45;;;;;;;8.09;84.73;99061.11;2037657;87;33077;-72
2022/12/24 00:56:34;;;;;;;24.72;17.12;;;;;;;8.10;84.75;99042.83;2026074;87;29685;-72
2022/12/24 00:59:36;;;;;;;29.20;17.50;;;;;;;8.11;84.78;99050.72;2037828;87;27762;-70
2022/12/24 01:02:37;;;;;;;26.23;18.25;;;;;;;8.10;84.72;99050.83;2026445;87;28710;-66
2022/12/24 01:05:42;;;;;;;25.25;17.80;;;;;;;8.11;84.76;99062.73;2037812;87;31052;-65
2022/12/24 01:08:45;;;;;;;29.35;20.00;;;;;;;8.12;84.79;99068.91;2026240;87;34314;-67
2022/12/24 01:11:47;;;;;;;28.10;19.65;;;;;;;8.13;84.83;99070.17;2037394;87;30534;-66
2022/12/24 01:14:49;;;;;;;27.32;17.87;;;;;;;8.15;84.87;99076.73;2026666;87;27683;-71
2022/12/24 01:17:50;;;;;;;29.48;19.62;;;;;;;8.16;84.88;99068.66;2026729;87;29942;-72
2022/12/24 01:21:02;;;;;;;28.35;19.45;;;;;;;8.18;84.92;99057.42;2003301;88;32180;-69
2022/12/24 01:24:05;;;;;;;28.57;18.98;;;;;;;8.18;84.82;99049.88;2003396;88;34117;-70
2022/12/24 01:27:07;;;;;;;29.63;19.73;;;;;;;8.17;84.89;99053.03;2003312;88;29343;-72
2022/12/24 01:30:13;;;;;;;25.88;18.87;;;;;;;8.18;84.78;99052.55;2003491;88;27681;-71
2022/12/24 01:33:15;;;;;;;31.97;20.52;;;;;;;8.17;84.85;99052.16;2003525;88;28669;-71
2022/12/24 01:36:16;;;;;;;31.62;20.90;;;;;;;8.15;84.72;99044.27;2002957;88;32272;-69
2022/12/24 01:39:19;;;;;;;27.67;19.12;;;;;;;8.14;84.84;99047.00;2002971;88;33978;-68
2022/12/24 01:45:52;;;;;;;35.20;20.48;;;;;;;8.14;84.72;99051.88;2003211;88;27735;-64
2022/12/24 01:48:59;;;;;;;32.78;22.25;;;;;;;8.12;84.75;99054.23;2003474;87;28697;-68
2022/12/24 01:52:18;;;;;;;38.15;24.45;;;;;;;8.08;84.69;99050.90;2021024;87;31097;-66
2022/12/24 01:55:20;;;;;;;30.48;21.27;;;;;;;8.08;84.81;99044.72;2025158;87;34373;-66
2022/12/24 01:58:23;;;;;;;32.13;21.05;;;;;;;8.06;84.74;99050.13;2032846;87;30521;-66
2022/12/24 02:01:25;;;;;;;30.20;20.65;;;;;;;8.05;84.80;99049.74;2029114;87;27711;-67
2022/12/24 02:04:39;;;;;;;28.45;21.05;;;;;;;8.02;84.74;99048.13;2029041;87;29561;-68
2022/12/24 02:07:41;;;;;;;31.70;20.55;;;;;;;8.00;84.71;99051.84;2063383;86;31828;-66
2022/12/24 02:10:45;;;;;;;29.10;19.52;;;;;;;8.00;84.81;99045.18;2029022;87;33087;-67
2022/12/24 02:13:52;;;;;;;28.85;19.02;;;;;;;7.99;84.87;99046.97;2063555;86;29515;-66
2022/12/24 02:17:08;;;;;;;26.77;18.62;;;;;;;8.02;84.92;99034.80;2029177;87;27642;-68
2022/12/24 02:20:36;;;;;;;28.57;18.40;;;;;;;7.99;84.86;99040.80;2062921;86;29103;-68
2022/12/24 02:23:44;;;;;;;31.50;19.35;;;;;;;7.97;84.93;99040.86;2014766;86;32287;-66
2022/12/24 02:27:09;;;;;;;29.95;20.97;;;;;;;7.96;85.15;99037.81;2042692;87;33125;-66
2022/12/24 02:30:17;;;;;;;31.62;19.85;;;;;;;7.96;85.16;99036.48;2031264;87;29649;-63
2022/12/24 02:33:56;;;;;;;29.15;21.27;;;;;;;7.95;85.13;99036.58;2041355;87;27702;-64
2022/12/24 02:37:10;;;;;;;32.88;22.22;;;;;;;7.94;85.07;99038.86;2041579;87;29110;-65
2022/12/24 02:40:19;;;;;;;33.30;22.13;;;;;;;7.93;85.18;99032.69;2042566;87;32264;-63
2022/12/24 02:43:25;;;;;;;33.70;22.30;;;;;;;7.93;85.21;99031.81;2042819;87;33014;-65
2022/12/24 02:46:29;;;;;;;32.88;21.40;;;;;;;7.93;85.17;99038.02;2042970;87;29490;-66
2022/12/24 02:49:30;;;;;;;31.02;21.30;;;;;;;7.92;85.17;99046.97;2043044;87;27620;-72
2022/12/24 02:52:37;;;;;;;31.40;20.35;;;;;;;7.90;85.08;99040.86;2052222;85;29547;-73
2022/12/24 02:55:53;;;;;;;31.90;20.90;;;;;;;7.90;85.13;99038.20;2025166;86;31851;-68
2022/12/24 02:59:06;;;;;;;28.83;19.02;;;;;;;7.90;85.24;99039.53;2030999;87;33466;-68
2022/12/24 03:02:38;;;;;;;27.42;18.07;;;;;;;7.92;85.26;99033.64;2078327;85;29189;-69
2022/12/24 03:05:51;;;;;;;22.67;15.75;;;;;;;7.91;85.25;99037.25;1978084;90;27672;-62
2022/12/24 03:09:03;;;;;;;25.40;16.10;;;;;;;7.91;85.27;99035.42;1977100;90;29683;-63
2022/12/24 03:12:12;;;;;;;22.17;14.60;;;;;;;7.94;85.34;99041.53;1977142;90;32349;-62
2022/12/24 03:15:17;;;;;;;19.05;13.80;;;;;;;7.93;85.24;99034.48;1977844;90;32973;-65
2022/12/24 03:18:24;;;;;;;20.97;13.90;;;;;;;7.93;85.30;99042.48;1978087;90;30121;-69
2022/12/24 03:21:35;;;;;;;21.93;14.18;;;;;;;7.93;85.33;99038.02;1977030;88;27723;-65
2022/12/24 03:24:37;;;;;;;18.00;12.70;;;;;;;7.95;85.45;99037.42;1978045;90;29054;-62
2022/12/24 03:27:40;;;;;;;19.15;11.73;;;;;;;7.99;85.49;99044.30;1977818;90;31056;-67
2022/12/24 03:30:45;;;;;;;16.07;11.43;;;;;;;8.01;85.45;99042.90;1977682;90;33760;-67
2022/12/24 03:33:47;;;;;;;17.30;10.50;;;;;;;8.03;85.45;99035.18;1978143;90;29351;-65
2022/12/24 03:36:50;;;;;;;19.45;10.25;;;;;;;8.03;85.43;99035.64;1977788;90;27656;-68
2022/12/24 03:39:52;;;;;;;14.30;10.55;;;;;;;8.04;85.37;99042.69;1977633;90;29666;-65
2022/12/24 03:42:54;;;;;;;11.65;9.68;;;;;;;8.04;85.36;99036.90;2047698;85;31904;-66
2022/12/24 03:45:56;;;;;;;15.18;10.13;;;;;;;8.06;85.43;99043.00;2078138;85;34400;-62
2022/12/24 03:48:58;;;;;;;14.83;9.65;;;;;;;8.09;85.49;99044.62;2078168;85;30519;-67
2022/12/24 03:52:00;;;;;;;12.90;9.68;;;;;;;8.11;85.54;99045.39;2096611;84;27725;-62
2022/12/24 03:55:03;;;;;;;11.70;9.03;;;;;;;8.13;85.52;99047.95;2117865;84;28780;-67
2022/12/24 03:58:06;;;;;;;15.72;10.40;;;;;;;8.14;85.52;99050.55;2059008;84;32032;-65
2022/12/24 04:01:08;;;;;;;13.60;9.40;;;;;;;8.14;85.48;99050.55;2012907;88;33864;-69
2022/12/24 04:04:10;;;;;;;13.70;10.18;;;;;;;8.18;85.53;99053.42;2012968;88;30470;-65
2022/12/24 04:07:12;;;;;;;14.20;8.95;;;;;;;8.19;85.52;99054.27;2046808;85;27661;-65
2022/12/24 04:10:15;;;;;;;12.15;8.80;;;;;;;8.21;85.54;99056.37;2047462;87;30003;-73
2022/12/24 04:13:17;;;;;;;13.38;7.70;;;;;;;8.22;85.57;99047.42;2047747;86;31935;-70
2022/12/24 04:16:19;;;;;;;12.63;8.45;;;;;;;8.26;85.58;99057.42;2047553;87;33568;-70
2022/12/24 04:19:21;;;;;;;11.80;8.28;;;;;;;8.26;85.48;99063.63;2047343;87;30545;-70
2022/12/24 04:22:24;;;;;;;9.70;7.42;;;;;;;8.27;85.52;99066.69;2029502;87;28422;-68
2022/12/24 04:25:26;;;;;;;8.65;6.10;;;;;;;8.28;85.50;99061.70;2012703;88;29934;-69
2022/12/24 04:28:29;;;;;;;9.13;5.87;;;;;;;8.29;85.55;99063.42;2012703;88;32290;-69
2022/12/24 04:31:31;;;;;;;9.70;4.72;;;;;;;8.30;85.67;99061.14;2012983;88;32977;-70
2022/12/24 04:34:33;;;;;;;9.58;4.75;;;;;;;8.33;85.82;99060.95;2012754;88;30127;-72
2022/12/24 04:37:35;;;;;;;5.92;4.37;;;;;;;8.38;86.07;99062.01;2012733;88;27736;-69
2022/12/24 04:40:38;;;;;;;8.55;4.40;;;;;;;8.42;86.23;99070.22;2012982;88;29478;-68
2022/12/24 04:43:40;;;;;;;6.55;4.47;;;;;;;8.46;86.34;99070.42;2012690;88;31922;-71
2022/12/24 04:46:42;;;;;;;6.40;4.22;;;;;;;8.50;86.49;99066.66;2012786;88;34353;-70
2022/12/24 04:49:44;;;;;;;7.40;4.78;;;;;;;8.56;86.57;99071.21;2012826;88;30237;-70
2022/12/24 04:52:47;;;;;;;6.12;4.08;;;;;;;8.61;86.72;99065.13;2012619;88;27825;-72
2022/12/24 04:55:49;;;;;;;7.37;4.25;;;;;;;8.64;86.83;99069.79;2012924;88;28856;-68
2022/12/24 04:58:52;;;;;;;5.00;3.55;;;;;;;8.70;86.93;99073.89;2012758;87;31091;-71
2022/12/24 05:01:53;;;;;;;4.92;3.52;;;;;;;8.76;86.98;99072.67;2012645;88;33985;-69
2022/12/24 05:04:55;;;;;;;12.80;5.00;;;;;;;8.79;87.01;99077.80;2012999;88;30304;-70
2022/12/24 05:07:57;;;;;;;6.58;3.77;;;;;;;8.84;87.04;99079.72;2013161;88;27742;-68
2022/12/24 05:11:00;;;;;;;7.03;4.05;;;;;;;8.88;87.04;99082.59;2013108;88;28680;-66
2022/12/24 05:14:02;;;;;;;6.28;4.12;;;;;;;8.91;86.99;99084.20;2012983;88;31116;-67
2022/12/24 05:17:04;;;;;;;8.45;4.62;;;;;;;8.93;86.94;99096.52;2012893;88;32944;-69
2022/12/24 05:20:07;;;;;;;5.83;3.72;;;;;;;8.96;86.99;99102.98;2013095;88;29356;-66
2022/12/24 05:26:52;;;;;;;6.28;4.10;;;;;;;9.02;86.95;99108.41;2012843;88;28747;-68
2022/12/24 05:29:54;;;;;;;6.78;4.37;;;;;;;9.05;86.97;99104.22;2012963;88;31057;-65
2022/12/24 05:32:56;;;;;;;5.90;4.67;;;;;;;9.08;86.98;99107.20;2012987;88;33198;-70
2022/12/24 05:35:58;;;;;;;6.65;4.37;;;;;;;9.09;86.88;99108.42;2013094;88;30118;-67
2022/12/24 05:38:59;;;;;;;8.63;4.60;;;;;;;9.10;86.87;99117.31;2013541;88;27729;-69
2022/12/24 05:42:01;;;;;;;7.53;3.95;;;;;;;9.10;86.89;99115.98;2013008;88;29499;-69
2022/12/24 05:45:04;;;;;;;9.53;4.42;;;;;;;9.11;87.01;99123.01;2013006;88;31037;-70
2022/12/24 05:48:06;;;;;;;13.10;3.65;;;;;;;9.12;87.16;99130.95;2012933;88;33767;-62
2022/12/24 05:51:11;;;;;;;7.83;3.55;;;;;;;9.16;87.24;99138.28;2013143;88;30142;-69
2022/12/24 05:54:13;;;;;;;6.70;3.80;;;;;;;9.17;87.29;99134.66;2013339;88;27702;-65
2022/12/24 05:57:15;;;;;;;7.30;3.80;;;;;;;9.19;87.37;99139.44;2012857;88;28768;-68
2022/12/24 06:00:19;;;;;;;7.70;3.15;;;;;;;9.21;87.34;99152.69;2012966;88;31977;-68
2022/12/24 06:03:21;;;;;;;6.90;3.02;;;;;;;9.24;87.38;99156.51;2013093;88;32996;-68
2022/12/24 06:06:26;;;;;;;10.05;3.77;;;;;;;9.25;87.42;99157.77;2013252;88;29327;-67
2022/12/24 06:09:27;;;;;;;7.87;3.40;;;;;;;9.27;87.39;99159.00;2013370;88;27747;-66
2022/12/24 06:12:29;;;;;;;4.25;2.85;;;;;;;9.30;87.46;99170.84;2013297;88;28840;-65
2022/12/24 06:15:31;;;;;;;6.87;3.60;;;;;;;9.33;87.41;99168.44;2012878;88;31907;-69
2022/12/24 06:18:34;;;;;;;8.68;3.58;;;;;;;9.34;87.38;99179.05;2013134;88;33469;-67
2022/12/24 06:21:36;;;;;;;6.47;3.27;;;;;;;9.35;87.40;99179.41;2013223;88;30158;-65
2022/12/24 06:24:38;;;;;;;4.35;3.05;;;;;;;9.35;87.38;99187.42;2012975;88;27578;-69
2022/12/24 06:27:40;;;;;;;9.15;3.35;;;;;;;9.34;87.46;99180.84;2013213;88;29900;-65
2022/12/24 06:30:48;;;;;;;3.62;3.17;;;;;;;9.38;87.48;99190.40;2013286;88;32196;-67
2022/12/24 06:33:51;;;;;;;5.50;3.52;;;;;;;9.40;87.53;99204.53;2013172;88;33886;-69
2022/12/24 06:36:53;;;;;;;9.53;4.58;;;;;;;9.39;87.53;99202.31;2012859;88;30360;-68
2022/12/24 06:39:55;;;;;;;7.95;3.80;;;;;;;9.40;87.53;99201.86;2013161;88;27714;-66
2022/12/24 06:42:57;;;;;;;7.17;3.55;;;;;;;9.41;87.56;99203.08;2013108;88;30035;-66
2022/12/24 06:46:01;;;;;;;4.50;2.90;;;;;;;9.42;87.51;99211.48;2012707;88;32266;-65
2022/12/24 06:49:03;;;;;;;5.83;3.47;;;;;;;9.43;87.54;99219.05;2012962;88;33175;-71
2022/12/24 06:52:06;;;;;;;4.53;3.45;;;;;;;9.43;87.52;99223.05;2012682;88;30510;-69
2022/12/24 06:55:09;;;;;;;5.45;2.90;;;;;;;9.44;87.59;99222.07;2013061;88;27581;-68
2022/12/24 06:58:11;;;;;;;5.95;3.30;;;;;;;9.46;87.66;99235.36;2012937;88;28835;-71
2022/12/24 07:01:15;;;;;;;6.83;3.35;;;;;;;9.48;87.64;99240.14;1981591;88;31786;-67
2022/12/24 07:04:17;;;;;;;4.70;2.83;;;;;;;9.49;87.59;99239.19;1978673;90;32996;-70
2022/12/24 07:07:19;;;;;;;2.95;2.58;;;;;;;9.50;87.61;99244.91;1946207;91;29485;-70
2022/12/24 07:10:21;;;;;;;5.28;3.12;;;;;;;9.50;87.64;99248.92;1946244;91;27740;-67
2022/12/24 07:13:23;;;;;;;4.53;2.67;;;;;;;9.52;87.65;99252.34;1978132;90;29925;-70
2022/12/24 07:16:25;;;;;;;3.47;2.98;;;;;;;9.53;87.62;99260.28;1945695;91;32227;-65
2022/12/24 07:19:27;;;;;;;5.92;3.60;;;;;;;9.53;87.57;99262.95;1978583;90;33635;-67
2022/12/24 07:22:28;;;;;;;7.40;3.45;;;;;;;9.55;87.59;99274.88;1978260;90;29457;-68
2022/12/24 07:25:30;;;;;;;8.05;3.80;;;;;;;9.56;87.60;99281.48;1978586;90;27824;-68
2022/12/24 07:28:32;;;;;;;5.55;3.67;;;;;;;9.57;87.59;99291.23;1978421;90;29774;-69
2022/12/24 07:31:34;;;;;;;5.00;4.05;;;;;;;9.59;87.55;99303.16;1978385;90;31066;-69
2022/12/24 07:34:35;;;;;;;4.53;3.83;;;;;;;9.58;87.54;99311.67;1978452;90;33713;-71
2022/12/24 07:37:37;;;;;;;4.97;4.47;;;;;;;9.58;87.42;99321.03;2008318;88;29331;-69
2022/12/24 07:40:39;;;;;;;5.20;3.80;;;;;;;9.54;87.30;99326.17;1978467;90;27816;-68
2022/12/24 07:43:41;;;;;;;5.50;3.87;;;;;;;9.52;87.21;99331.20;1978550;90;28671;-70
2022/12/24 07:46:43;;;;;;;4.60;4.05;;;;;;;9.49;87.10;99331.42;1946093;91;31036;-70
2022/12/24 07:49:45;;;;;;;7.33;5.42;;;;;;;9.45;87.12;99337.90;2008155;88;32989;-70
2022/12/24 07:52:47;;;;;;;6.58;5.55;;;;;;;9.44;87.11;99339.70;1978482;90;29373;-71
2022/12/24 07:55:49;;;;;;;7.22;5.62;;;;;;;9.41;86.90;99341.24;1978395;90;27685;-68
2022/12/24 07:58:51;;;;;;;6.85;6.03;;;;;;;9.39;86.86;99349.34;1946035;91;29522;-71
2022/12/24 08:01:53;;;;;;;8.13;6.60;;;;;;;9.38;86.89;99354.79;2002402;88;32026;-72
2022/12/24 08:04:55;;;;;;;9.38;6.60;;;;;;;9.38;86.81;99364.98;2003488;88;33039;-72
2022/12/24 08:07:57;;;;;;;9.15;6.92;;;;;;;9.40;86.86;99369.77;2003305;88;29408;-68
2022/12/24 08:11:05;;;;;;;8.80;7.22;;;;;;;9.42;86.96;99372.38;2003354;88;27699;-71
2022/12/24 08:14:06;;;;;;;8.80;7.22;;;;;;;9.48;87.04;99377.82;2003399;88;28691;-69
2022/12/24 08:17:08;;;;;;;10.50;7.47;;;;;;;9.53;87.05;99380.59;2003334;88;31030;-68
2022/12/24 08:20:17;;;;;;;11.68;9.10;;;;;;;9.58;86.97;99384.33;2003263;88;32964;-69
2022/12/24 08:23:34;;;;;;;13.45;9.48;;;;;;;9.61;86.73;99389.95;2003039;88;29495;-72
2022/12/24 08:26:36;;;;;;;11.55;9.85;;;;;;;9.62;86.65;99399.70;2003363;88;27752;-68
2022/12/24 08:29:38;;;;;;;9.50;8.50;;;;;;;9.64;86.62;99404.48;2003254;87;28803;-71
2022/12/24 08:32:39;;;;;;;10.70;9.20;;;;;;;9.65;86.55;99407.54;2003094;88;31069;-71
2022/12/24 08:35:48;;;;;;;10.90;8.98;;;;;;;9.68;86.60;99422.92;2002931;88;32922;-71
2022/12/24 08:38:50;;;;;;;10.90;8.60;;;;;;;9.71;86.49;99429.92;2003017;88;30169;-72
2022/12/24 08:41:51;;;;;;;10.80;8.63;;;;;;;9.73;86.29;99434.70;2002867;88;28391;-71
2022/12/24 08:44:53;;;;;;;12.53;9.23;;;;;;;9.73;86.28;99448.08;2003104;88;28731;-70
2022/12/24 08:47:55;;;;;;;12.28;8.80;;;;;;;9.75;86.03;99448.84;2002881;88;31861;-68
2022/12/24 08:50:57;;;;;;;12.45;8.90;;;;;;;9.74;85.84;99465.84;2002890;88;33718;-68
2022/12/24 08:53:58;;;;;;;14.13;11.38;;;;;;;9.70;85.83;99467.81;2003013;88;29340;-68
2022/12/24 08:57:01;;;;;;;17.95;12.93;;;;;;;9.70;85.72;99465.14;2003333;88;27726;-72
2022/12/24 09:00:06;;;;;;;14.40;10.65;;;;;;;9.71;85.84;99473.55;2005472;88;29506;-73
2022/12/24 09:03:13;;;;;;;13.68;10.32;;;;;;;9.75;85.90;99481.40;2012799;88;31110;-72
2022/12/24 09:06:15;;;;;;;12.55;10.13;;;;;;;9.77;85.84;99487.03;2012849;88;32401;-72
2022/12/24 09:09:19;;;;;;;11.35;9.73;;;;;;;9.77;85.49;99490.20;2012863;88;29377;-70
2022/12/24 09:12:21;;;;;;;12.10;9.10;;;;;;;9.75;85.42;99497.45;2013152;88;27745;-73
2022/12/24 09:15:23;;;;;;;11.22;9.20;;;;;;;9.73;85.37;99498.89;2012795;88;29484;-69
2022/12/24 09:18:25;;;;;;;10.95;9.10;;;;;;;9.71;85.43;99502.97;2013024;88;32058;-72
2022/12/24 09:21:27;;;;;;;11.15;9.28;;;;;;;9.70;85.30;99503.92;2012966;88;32966;-66
2022/12/24 09:24:29;;;;;;;12.13;8.90;;;;;;;9.66;85.11;99507.75;2013138;88;29319;-72
2022/12/24 09:27:31;;;;;;;12.00;9.20;;;;;;;9.61;84.87;99513.84;2013133;88;27738;-73
2022/12/24 09:30:32;;;;;;;12.55;10.40;;;;;;;9.58;85.10;99514.89;2013205;88;28694;-69
2022/12/24 09:33:37;;;;;;;12.73;10.08;;;;;;;9.57;85.16;99523.86;2013057;88;32012;-73
2022/12/24 09:36:39;;;;;;;11.27;8.97;;;;;;;9.58;85.09;99532.73;2013285;88;32984;-69
2022/12/24 09:39:42;;;;;;;10.72;8.30;;;;;;;9.58;85.15;99531.39;2012878;88;28829;-74
2022/12/24 09:42:51;;;;;;;8.75;7.65;;;;;;;9.59;85.15;99530.44;1989479;88;27800;-73
2022/12/24 09:46:22;;;;;;;8.98;8.00;;;;;;;9.60;85.10;99545.55;2013079;88;28691;-73
2022/12/24 09:49:28;;;;;;;10.90;8.58;;;;;;;9.57;84.83;99549.27;2013000;88;31923;-73
2022/12/24 09:52:34;;;;;;;11.15;8.15;;;;;;;9.56;84.91;99548.00;2012891;88;32860;-73
2022/12/24 09:55:47;;;;;;;13.30;8.73;;;;;;;9.55;84.93;99559.19;2012765;88;29540;-74
2022/12/24 09:58:54;;;;;;;17.15;10.25;;;;;;;9.56;84.93;99566.25;1996547;88;27781;-72
2022/12/24 10:01:56;;;;;;;14.80;10.10;;;;;;;9.56;84.87;99573.40;2013002;88;28856;-74
2022/12/24 10:04:59;;;;;;;17.92;12.53;;;;;;;9.55;84.75;99571.22;2012758;88;31963;-73
2022/12/24 10:08:12;;;;;;;16.35;11.22;;;;;;;9.54;84.61;99579.30;2013134;88;32987;-74
2022/12/24 10:11:25;;;;;;;10.55;7.70;;;;;;;9.52;84.76;99584.75;2013194;88;29355;-74
2022/12/24 10:14:50;;;;;;;10.93;7.60;;;;;;;9.52;84.56;99585.21;2013068;88;27683;-74
2022/12/24 10:18:20;;;;;;;11.28;8.40;;;;;;;9.48;84.54;99584.53;2012161;88;30778;-73
2022/12/24 10:21:51;;;;;;;13.35;10.05;;;;;;;9.47;84.56;99596.17;2013124;88;31299;-75
2022/12/24 10:25:13;;;;;;;14.53;10.15;;;;;;;9.49;84.73;99602.79;1915073;92;33154;-73
2022/12/24 10:28:25;;;;;;;11.97;9.98;;;;;;;9.51;84.82;99604.42;1914884;92;30152;-73
2022/12/24 10:31:35;;;;;;;12.65;9.63;;;;;;;9.54;84.76;99616.73;1914959;92;27816;-72
2022/12/24 10:35:03;;;;;;;11.78;9.13;;;;;;;9.58;84.86;99630.33;1914886;92;28309;-73
2022/12/24 10:38:05;;;;;;;17.17;10.58;;;;;;;9.60;84.85;99624.42;1913977;92;32320;-72
2022/12/24 10:41:07;;;;;;;14.00;10.05;;;;;;;9.64;84.73;99629.13;1914907;92;33752;-74
2022/12/24 10:44:16;;;;;;;13.80;10.15;;;;;;;9.65;84.64;99630.84;1915064;92;29365;-73
2022/12/24 10:47:20;;;;;;;17.92;11.00;;;;;;;9.63;84.47;99636.30;1914962;92;27686;-72
2022/12/24 10:50:32;;;;;;;15.45;9.83;;;;;;;9.62;84.41;99639.92;1914956;92;29528;-69
2022/12/24 10:53:57;;;;;;;18.50;11.97;;;;;;;9.62;84.44;99650.61;1914918;92;31930;-73
2022/12/24 10:57:01;;;;;;;17.80;11.67;;;;;;;9.62;84.39;99656.42;1914999;92;32497;-69
2022/12/24 11:00:06;;;;;;;17.10;14.43;;;;;;;9.60;84.53;99661.87;1915006;92;29389;-70
2022/12/24 11:03:34;;;;;;;18.62;15.53;;;;;;;9.61;84.49;99668.06;2006272;88;27701;-72
2022/12/24 11:06:44;;;;;;;18.32;14.60;;;;;;;9.58;84.46;99666.44;2012699;88;28825;-73
2022/12/24 11:09:59;;;;;;;13.28;8.98;;;;;;;9.56;84.43;99673.22;2004842;88;31075;-73
2022/12/24 11:13:00;;;;;;;13.50;10.10;;;;;;;9.52;84.30;99679.67;2012655;88;33796;-71
2022/12/24 11:16:26;;;;;;;11.55;8.98;;;;;;;9.49;84.37;99675.83;2012902;88;29323;-71
2022/12/24 11:19:38;;;;;;;17.77;13.58;;;;;;;9.35;84.25;99673.05;2008587;88;27712;-74
2022/12/24 11:22:41;;;;;;;19.45;12.68;;;;;;;9.35;84.25;99673.05;2013017;88;28776;-72
2022/12/24 11:25:49;;;;;;;15.18;10.80;;;;;;;9.45;84.35;99688.97;2012879;88;31096;-74
2022/12/24 11:29:20;;;;;;;13.32;10.15;;;;;;;9.45;84.41;99700.16;2010425;88;33914;-73
2022/12/24 11:32:22;;;;;;;14.75;10.65;;;;;;;9.41;84.28;99699.47;2012878;88;29344;-74
2022/12/24 11:35:25;;;;;;;10.78;9.13;;;;;;;9.39;84.30;99707.55;2013078;88;27768;-73
2022/12/24 11:38:29;;;;;;;10.45;8.13;;;;;;;9.38;84.39;99712.99;2012918;88;29548;-75
2022/12/24 11:41:36;;;;;;;12.88;8.38;;;;;;;9.33;84.17;99705.69;2013016;88;31225;-74
2022/12/24 11:44:43;;;;;;;10.72;7.95;;;;;;;9.33;84.36;99707.02;2013019;88;33803;-69
2022/12/24 11:47:45;;;;;;;9.68;8.05;;;;;;;9.34;84.39;99707.41;2012229;88;30291;-74
2022/12/24 11:50:58;;;;;;;12.30;8.13;;;;;;;9.35;84.47;99714.00;2013189;88;27710;-74
2022/12/24 11:54:19;;;;;;;11.18;8.98;;;;;;;9.37;84.49;99716.61;2013082;88;29511;-73
2022/12/24 11:57:24;;;;;;;11.35;8.45;;;;;;;9.37;84.47;99721.95;2012927;88;31510;-73
2022/12/24 12:00:26;;;;;;;11.22;8.83;;;;;;;9.42;84.66;99722.58;2012333;88;33646;-74
2022/12/24 12:03:39;;;;;;;10.23;7.33;;;;;;;9.39;84.60;99719.58;2003271;88;30161;-73
2022/12/24 12:06:58;;;;;;;10.78;7.45;;;;;;;9.45;84.49;99742.93;2003456;88;27714;-72
2022/12/24 12:10:17;;;;;;;8.90;5.95;;;;;;;9.43;84.52;99739.86;2003285;88;28651;-73
2022/12/24 12:13:31;;;;;;;8.93;6.72;;;;;;;9.45;84.60;99739.77;1970112;90;32006;-73
2022/12/24 12:17:00;;;;;;;11.28;9.23;;;;;;;9.45;84.68;99742.93;1969545;90;33045;-72
2022/12/24 12:20:19;;;;;;;16.48;10.40;;;;;;;9.48;84.82;99754.31;1970180;90;29113;-72
2022/12/24 12:23:36;;;;;;;15.53;8.68;;;;;;;9.50;84.77;99752.42;2003521;88;27735;-71
2022/12/24 12:26:39;;;;;;;12.73;9.45;;;;;;;9.53;84.87;99758.95;2003101;88;28867;-72
2022/12/24 12:29:58;;;;;;;21.65;15.48;;;;;;;9.57;84.93;99766.32;2003306;88;32000;-72
2022/12/24 12:33:14;;;;;;;20.32;10.10;;;;;;;9.63;85.03;99762.45;1969328;90;33174;-72
2022/12/24 12:36:20;;;;;;;20.52;11.68;;;;;;;9.65;84.94;99772.59;1880584;94;29344;-64
2022/12/24 12:39:23;;;;;;;26.80;12.88;;;;;;;9.68;84.98;99771.94;1911079;93;27839;-73
2022/12/24 12:42:36;;;;;;;54.08;27.27;;;;;;;9.71;84.97;99779.80;1897849;93;28732;-72
2022/12/24 12:45:49;;;;;;;35.30;18.48;;;;;;;9.75;84.97;99782.31;1910798;93;31165;-69
2022/12/24 12:49:29;;;;;;;21.62;9.60;;;;;;;9.80;84.95;99781.60;1897009;93;33781;-74
2022/12/24 12:52:42;;;;;;;15.72;6.67;;;;;;;9.83;84.96;99787.64;1910944;93;29403;-71
2022/12/24 12:56:27;;;;;;;20.02;6.87;;;;;;;9.88;85.00;99778.89;1898221;93;27826;-72
2022/12/24 12:59:42;;;;;;;19.50;6.85;;;;;;;9.98;85.08;99785.94;1911071;93;28863;-73
2022/12/24 13:03:06;;;;;;;;;;;;;;;10.03;84.88;99790.54;1890284;92;31457;-71
2022/12/24 13:06:37;;;;;;;33.38;13.60;;;;;;;10.09;84.74;99792.04;1914863;92;33036;-71
2022/12/24 13:09:59;;;;;;;27.22;9.40;;;;;;;10.08;84.61;99802.35;1914963;92;30269;-72
2022/12/24 13:13:31;;;;;;;26.10;8.30;;;;;;;10.06;84.15;99798.89;1953656;88;27766;-71
2022/12/24 13:16:51;;;;;;;31.10;11.18;;;;;;;10.01;84.17;99807.16;2012525;88;29828;-69
2022/12/24 13:20:13;;;;;;;26.70;10.32;;;;;;;10.01;84.30;99818.34;2013026;88;31109;-66
2022/12/24 13:23:26;;;;;;;25.50;8.40;;;;;;;10.01;84.22;99816.52;2012733;88;33772;-66
2022/12/24 13:26:27;;;;;;;14.63;5.83;;;;;;;9.98;83.99;99820.73;2012501;88;29315;-70
2022/12/24 13:29:56;;;;;;;24.07;5.60;;;;;;;9.93;83.88;99833.98;2012820;88;27746;-72
2022/12/24 13:32:58;;;;;;;19.00;5.08;;;;;;;9.90;83.86;99835.47;2012609;88;28650;-72
2022/12/24 13:36:06;;;;;;;18.42;4.78;;;;;;;9.86;83.72;99840.11;1988974;88;31877;-69
2022/12/24 13:39:18;;;;;;;16.27;5.22;;;;;;;9.80;83.72;99845.31;2012734;88;32979;-70
2022/12/24 13:42:50;;;;;;;15.55;5.72;;;;;;;9.78;83.83;99839.18;2012769;88;29344;-71
2022/12/24 13:45:52;;;;;;;10.20;4.85;;;;;;;9.77;83.69;99843.29;2012850;88;27824;-68
2022/12/24 13:48:54;;;;;;;20.12;5.90;;;;;;;9.75;83.85;99854.09;2012837;88;28165;-72
2022/12/24 13:52:20;;;;;;;13.93;5.45;;;;;;;9.75;83.71;99855.42;2012729;88;31036;-71
2022/12/24 13:55:20;;;;;;;22.27;5.97;;;;;;;9.73;83.79;99858.65;2011572;88;33013;-72
2022/12/24 13:58:24;;;;;;;16.55;5.62;;;;;;;9.73;83.82;99869.34;2013088;88;29350;-72
2022/12/24 14:01:36;;;;;;;18.20;6.95;;;;;;;9.72;83.77;99860.44;2012892;88;27664;-70
2022/12/24 14:04:41;;;;;;;17.27;5.03;;;;;;;9.70;83.61;99860.99;2012582;88;29597;-71
2022/12/24 14:07:47;;;;;;;18.65;6.22;;;;;;;9.66;83.46;99870.16;1979158;89;45633;-69
2022/12/24 14:11:14;;;;;;;21.57;7.20;;;;;;;9.63;83.28;99866.30;2011305;88;33863;-68
2022/12/24 14:14:30;;;;;;;17.23;5.87;;;;;;;9.60;83.37;99871.80;2013028;88;30240;-67
2022/12/24 14:17:34;;;;;;;19.42;5.80;;;;;;;9.61;83.20;99867.30;2012919;88;27727;-66
2022/12/24 14:20:36;;;;;;;15.28;5.20;;;;;;;9.57;83.11;99880.86;2013129;88;28889;-65
2022/12/24 14:23:57;;;;;;;13.43;4.67;;;;;;;9.54;83.00;99883.69;2013138;88;31223;-72
2022/12/24 14:27:33;;;;;;;17.30;5.87;;;;;;;9.52;83.06;99881.56;2013030;88;32968;-67
2022/12/24 14:30:35;;;;;;;12.30;5.12;;;;;;;9.51;83.00;99892.34;2012724;88;29396;-70
2022/12/24 14:33:37;;;;;;;18.02;5.50;;;;;;;9.49;82.76;99888.89;2013347;88;27670;-69
2022/12/24 14:36:40;;;;;;;17.12;6.70;;;;;;;9.44;82.64;99894.45;2013057;88;28657;-73
2022/12/24 14:39:47;;;;;;;19.82;7.37;;;;;;;9.40;82.55;99900.44;1989272;88;31052;-69
2022/12/24 14:42:55;;;;;;;20.35;7.33;;;;;;;9.34;82.54;99906.11;2012917;88;32958;-70
2022/12/24 14:46:08;;;;;;;14.07;4.87;;;;;;;9.25;82.23;99907.44;2013008;88;30129;-70